createdAt,value
2022-12-09T02:15:55.101Z,-3.29
2022-12-09T02:18:35.529Z,-3.13
2022-12-09T02:21:10.691Z,-2.90
2022-12-09T02:23:41.433Z,-2.71
2022-12-09T02:26:25.953Z,-2.43
2022-12-09T02:29:26.529Z,-2.21
2022-12-09T02:32:22.172Z,-1.94
2022-12-09T02:34:59.648Z,-1.72
2022-12-09T02:37:55.415Z,-1.51
2022-12-09T02:40:55.795Z,-1.34
2022-12-09T02:43:26.838Z,-1.25
2022-12-09T02:45:56.832Z,-1.12
2022-12-09T02:48:40.324Z,-0.95
2022-12-09T02:51:12.960Z,-0.92
2022-12-09T02:53:40.422Z,-0.81
2022-12-09T02:56:09.585Z,-0.77
2022-12-09T02:58:37.999Z,-0.67
2022-12-09T03:01:07.370Z,-0.59
2022-12-09T03:03:36.248Z,-0.52
2022-12-09T03:06:10.503Z,-0.45
2022-12-09T03:08:47.378Z,-0.39
2022-12-09T03:11:19.350Z,-0.34
2022-12-09T03:14:08.132Z,-0.31
2022-12-09T03:16:52.990Z,-0.30
2022-12-09T03:19:34.327Z,-0.30
2022-12-09T03:22:06.549Z,-0.24
2022-12-09T03:24:42.032Z,-0.23
2022-12-09T03:27:15.746Z,-0.24
2022-12-09T03:29:49.255Z,-0.45
2022-12-09T03:32:20.538Z,-0.37
2022-12-09T03:34:52.053Z,-0.41
2022-12-09T03:37:21.915Z,-0.37
2022-12-09T03:39:52.141Z,-0.27
2022-12-09T03:42:27.268Z,-0.25
2022-12-09T03:45:01.262Z,-0.28
2022-12-09T03:47:33.255Z,-0.24
2022-12-09T03:50:00.827Z,-0.20
2022-12-09T03:52:39.694Z,-0.22
2022-12-09T03:55:29.544Z,-0.21
2022-12-09T03:58:00.808Z,-0.23
2022-12-09T04:00:29.497Z,-0.24
2022-12-09T04:02:59.219Z,-0.24
2022-12-09T04:05:28.460Z,-0.22
2022-12-09T04:07:56.424Z,-0.23
2022-12-09T04:10:24.414Z,-0.20
2022-12-09T04:12:52.046Z,-0.20
2022-12-09T04:15:19.969Z,-0.19
2022-12-09T04:17:47.853Z,-0.15
2022-12-09T04:20:15.721Z,-0.19
2022-12-09T04:22:43.412Z,-0.15
2022-12-09T04:25:11.051Z,-0.18
2022-12-09T04:27:38.428Z,-0.20
2022-12-09T04:30:07.288Z,-0.13
2022-12-09T04:32:35.336Z,-0.13
2022-12-09T04:35:03.928Z,-0.10
2022-12-09T04:37:32.129Z,-0.11
2022-12-09T04:40:00.475Z,-0.08
2022-12-09T04:42:29.192Z,-0.10
2022-12-09T04:44:57.222Z,-0.07
2022-12-09T04:47:24.772Z,-0.04
2022-12-09T04:49:52.561Z,-0.03
2022-12-09T04:52:20.588Z,-0.08
2022-12-09T04:54:51.072Z,-0.03
2022-12-09T04:57:20.213Z,-0.07
2022-12-09T04:59:47.823Z,-0.09
2022-12-09T05:02:15.658Z,-0.13
2022-12-09T05:04:43.188Z,-0.14
2022-12-09T05:07:11.972Z,-0.14
2022-12-09T05:09:39.237Z,-0.25
2022-12-09T05:12:07.445Z,-0.23
2022-12-09T05:14:35.099Z,-0.24
2022-12-09T05:17:03.958Z,-0.27
2022-12-09T05:19:32.196Z,-0.27
2022-12-09T05:22:00.542Z,-0.23
2022-12-09T05:24:28.440Z,-0.24
2022-12-09T05:26:56.046Z,-0.34
2022-12-09T05:29:23.784Z,-0.31
2022-12-09T05:31:52.532Z,-0.34
2022-12-09T05:34:20.490Z,-0.35
2022-12-09T05:36:48.777Z,-0.43
2022-12-09T05:39:16.451Z,-0.51
2022-12-09T05:41:44.129Z,-0.57
2022-12-09T05:44:12.880Z,-0.67
2022-12-09T05:46:41.092Z,-0.76
2022-12-09T05:49:09.486Z,-0.78
2022-12-09T05:51:37.922Z,-0.82
2022-12-09T05:54:06.514Z,-0.85
2022-12-09T05:56:34.555Z,-0.86
2022-12-09T05:59:02.003Z,-0.88
2022-12-09T06:01:30.182Z,-0.98
2022-12-09T06:03:57.882Z,-0.90
2022-12-09T06:06:28.420Z,-0.94
2022-12-09T06:08:59.892Z,-0.96
2022-12-09T06:11:28.173Z,-0.94
2022-12-09T06:13:56.259Z,-0.93
2022-12-09T06:16:24.900Z,-0.88
2022-12-09T06:18:52.886Z,-0.89
2022-12-09T06:21:21.852Z,-0.86
2022-12-09T11:11:38.938Z,2.03
2022-12-09T11:14:22.372Z,2.20
2022-12-09T11:16:56.518Z,2.44
2022-12-09T11:19:39.072Z,2.71
2022-12-09T11:22:22.151Z,3.01
2022-12-09T11:24:56.730Z,3.33
2022-12-09T11:27:31.119Z,3.63
2022-12-09T11:30:14.119Z,3.78
2022-12-09T11:33:03.524Z,4.08
2022-12-09T11:35:43.699Z,4.32
2022-12-09T11:38:36.439Z,4.40
2022-12-09T11:41:10.025Z,4.49
2022-12-09T11:43:40.111Z,4.57
2022-12-09T11:46:21.522Z,4.62
2022-12-09T11:48:51.917Z,4.60
2022-12-09T11:51:31.463Z,4.59
2022-12-09T11:54:05.206Z,4.52
2022-12-09T11:56:35.780Z,4.42
2022-12-09T11:59:18.806Z,4.33
2022-12-09T12:02:08.194Z,4.26
2022-12-09T12:04:55.230Z,4.21
2022-12-09T12:07:30.815Z,4.13
2022-12-09T12:09:58.935Z,4.11
2022-12-09T12:12:45.524Z,4.05
2022-12-09T12:15:20.553Z,4.00
2022-12-09T12:17:53.303Z,3.93
2022-12-09T12:20:21.896Z,3.82
2022-12-09T12:23:14.870Z,3.73
2022-12-09T12:26:04.756Z,3.63
2022-12-09T12:29:02.542Z,3.50
2022-12-09T12:31:45.441Z,3.42
2022-12-09T12:34:39.477Z,3.35
2022-12-09T12:37:25.074Z,3.26
2022-12-09T12:40:05.022Z,3.22
2022-12-09T12:43:14.906Z,3.21
2022-12-09T12:46:13.194Z,3.16
2022-12-09T12:48:58.913Z,3.12
2022-12-09T12:51:32.867Z,3.10
2022-12-09T12:54:16.439Z,3.05
2022-12-09T12:56:58.866Z,3.05
2022-12-09T12:59:44.620Z,3.03
2022-12-09T13:02:20.964Z,3.01
2022-12-09T13:05:24.859Z,2.95
2022-12-09T13:07:59.740Z,2.87
2022-12-09T13:10:42.250Z,2.82
2022-12-09T13:13:22.888Z,2.81
2022-12-09T13:15:53.990Z,2.81
2022-12-09T13:18:33.187Z,2.77
2022-12-09T13:21:02.440Z,2.77
2022-12-09T13:24:04.314Z,2.72
2022-12-09T13:26:41.368Z,2.71
2022-12-09T13:29:36.374Z,2.70
2022-12-09T13:32:19.018Z,2.66
2022-12-09T13:34:52.823Z,2.64
2022-12-09T13:37:48.164Z,2.62
2022-12-09T13:40:33.075Z,2.60
2022-12-09T13:43:02.813Z,2.56
2022-12-09T13:45:44.994Z,2.54
2022-12-09T13:48:17.004Z,2.51
2022-12-09T13:50:57.853Z,2.47
2022-12-09T13:53:34.671Z,2.44
2022-12-09T13:56:23.078Z,2.43
2022-12-09T13:59:03.983Z,2.41
2022-12-09T14:01:35.026Z,2.39
2022-12-09T14:04:08.585Z,2.39
2022-12-09T14:06:56.859Z,2.37
2022-12-09T14:09:33.382Z,2.36
2022-12-09T14:12:05.410Z,2.35
2022-12-09T14:14:33.433Z,2.35
2022-12-09T14:17:05.012Z,2.33
2022-12-09T14:19:46.865Z,2.31
2022-12-09T14:22:20.609Z,2.28
2022-12-09T14:24:51.677Z,2.27
2022-12-09T18:21:40.842Z,-0.90
2022-12-09T18:24:08.771Z,-0.69
2022-12-09T18:26:41.686Z,-0.46
2022-12-09T18:29:10.985Z,-0.21
2022-12-09T18:31:38.773Z,0.04
2022-12-09T18:34:06.145Z,0.27
2022-12-09T18:36:33.784Z,0.47
2022-12-09T18:39:01.049Z,0.64
2022-12-09T18:41:30.453Z,0.80
2022-12-09T18:43:59.987Z,0.94
2022-12-09T18:46:30.524Z,1.07
2022-12-09T18:49:00.029Z,1.18
2022-12-09T18:51:28.626Z,1.29
2022-12-09T18:53:58.764Z,1.36
2022-12-09T18:56:27.249Z,1.43
2022-12-09T18:59:11.000Z,1.51
2022-12-09T19:01:41.253Z,1.56
2022-12-09T19:04:35.298Z,1.62
2022-12-09T19:07:02.639Z,1.65
2022-12-09T19:09:33.612Z,1.69
2022-12-09T19:12:22.912Z,1.73
2022-12-09T19:14:50.970Z,1.76
2022-12-09T19:17:19.395Z,1.79
2022-12-09T19:19:47.555Z,1.79
2022-12-09T19:22:15.035Z,1.80
2022-12-09T19:24:43.304Z,1.78
2022-12-09T19:27:11.050Z,1.80
2022-12-09T19:29:39.785Z,1.80
2022-12-09T19:32:23.591Z,1.81
2022-12-09T19:34:54.636Z,1.79
2022-12-09T19:37:22.222Z,1.82
2022-12-09T19:39:50.404Z,1.82
2022-12-09T19:42:19.353Z,1.82
2022-12-09T19:45:07.701Z,1.83
2022-12-09T19:47:35.774Z,1.79
2022-12-09T19:50:03.106Z,1.80
2022-12-09T19:52:30.312Z,1.79
2022-12-09T19:54:57.375Z,1.82
2022-12-09T19:57:24.706Z,1.83
2022-12-09T19:59:51.924Z,1.85
2022-12-09T20:02:19.364Z,1.84
2022-12-09T20:04:51.392Z,1.84
2022-12-09T20:07:20.121Z,1.85
2022-12-09T20:09:47.599Z,1.85
2022-12-09T20:12:15.041Z,1.79
2022-12-09T20:14:43.290Z,1.83
2022-12-09T20:17:12.668Z,1.84
2022-12-09T20:19:39.575Z,1.85
2022-12-09T20:22:06.924Z,1.85
2022-12-09T20:24:36.005Z,1.88
2022-12-09T20:27:03.104Z,1.88
2022-12-09T20:29:35.727Z,1.87
2022-12-09T20:32:05.500Z,1.87
2022-12-09T20:34:32.301Z,1.89
2022-12-09T20:36:59.271Z,1.91
2022-12-09T20:39:32.100Z,1.95
2022-12-09T20:42:00.477Z,1.98
2022-12-09T20:44:27.793Z,1.98
2022-12-09T20:47:02.735Z,2.02
2022-12-09T20:49:30.567Z,2.00
2022-12-09T20:51:57.830Z,2.02
2022-12-09T20:54:25.158Z,2.04
2022-12-09T20:56:53.201Z,2.05
2022-12-09T20:59:20.184Z,2.01
2022-12-09T21:01:47.335Z,2.03
2022-12-09T21:04:15.556Z,2.06
2022-12-09T21:06:43.403Z,2.09
2022-12-09T21:09:14.819Z,2.09
2022-12-09T21:11:41.829Z,2.10
2022-12-09T21:14:09.867Z,2.10
2022-12-09T21:16:42.641Z,2.12
2022-12-09T21:19:13.063Z,2.11
2022-12-09T21:21:42.150Z,2.13
2022-12-09T21:24:13.138Z,2.08
2022-12-09T21:26:41.025Z,2.13
2022-12-09T21:29:08.474Z,2.16
2022-12-09T21:31:38.156Z,2.17
2022-12-09T21:34:06.461Z,2.18
2022-12-09T21:36:41.320Z,2.19
2022-12-09T21:39:10.908Z,2.16
2022-12-09T21:41:38.303Z,2.19
2022-12-09T21:44:06.937Z,2.20
2022-12-09T21:46:36.780Z,2.21
2022-12-09T21:49:06.066Z,2.21
2022-12-09T21:51:35.043Z,2.23
2022-12-09T21:54:02.545Z,2.24
2022-12-09T21:56:31.376Z,2.25
2022-12-09T21:58:59.412Z,2.25
2022-12-09T22:01:35.545Z,2.25
2022-12-09T22:04:04.681Z,2.25
2022-12-09T22:06:31.861Z,2.25
2022-12-09T22:09:00.346Z,2.22
2022-12-09T22:11:30.425Z,2.24
2022-12-09T22:13:59.115Z,2.21
2022-12-09T22:16:29.651Z,2.17
2022-12-09T22:18:58.776Z,2.18
2022-12-09T22:21:29.700Z,2.21
2022-12-09T22:23:59.491Z,2.21
2022-12-09T22:26:26.925Z,2.17
2022-12-09T22:28:54.802Z,2.19
2022-12-09T22:31:24.684Z,2.19
2022-12-09T22:33:53.908Z,2.15
2022-12-09T22:36:21.902Z,2.18
2022-12-09T22:38:49.020Z,2.20
2022-12-09T22:41:18.708Z,2.22
2022-12-09T22:43:48.452Z,2.20
2022-12-09T22:46:18.694Z,2.23
2022-12-09T22:48:46.161Z,2.23
2022-12-09T22:51:16.971Z,2.21
2022-12-09T22:53:45.698Z,2.25
2022-12-09T22:56:13.081Z,2.28
2022-12-09T22:58:40.529Z,2.30
2022-12-09T23:01:17.041Z,2.32
2022-12-09T23:03:45.065Z,2.32
2022-12-09T23:06:12.638Z,2.32
2022-12-09T23:08:41.595Z,2.35
2022-12-09T23:11:12.440Z,2.34
2022-12-09T23:13:41.373Z,2.37
2022-12-09T23:16:12.722Z,2.35
2022-12-09T23:18:40.443Z,2.34
2022-12-09T23:21:10.258Z,2.34
2022-12-09T23:23:37.616Z,2.29
2022-12-09T23:26:08.247Z,2.30
2022-12-09T23:28:41.877Z,2.30
2022-12-09T23:31:11.156Z,2.27
2022-12-09T23:33:39.765Z,2.28
2022-12-09T23:36:08.163Z,2.26
2022-12-09T23:38:36.094Z,2.21
2022-12-09T23:41:05.247Z,2.19
2022-12-09T23:43:33.943Z,2.21
2022-12-09T23:46:12.921Z,2.17
2022-12-09T23:48:43.529Z,2.19
2022-12-09T23:51:14.674Z,2.23
2022-12-09T23:53:43.686Z,2.19
2022-12-09T23:56:12.820Z,2.19
2022-12-09T23:58:41.512Z,2.15
